KMYV/MYV METAR and TAF weather

Enter ICAO airport designator
Station Type Date Time Source
KMYV METAR 2021/09/24 05:53 UTC NOAA

KMYV 240553Z AUTO 09004KT 10SM CLR 22/07 A2981 RMK AO2 SLP098 T02170072 10361 20200 50003


Station Type Date Time Source
KMYV Decoded METAR 2021/09/24 05:53 UTC NOAA

MARYSVILLE YUBA COUNTY, CA, United States (KMYV) 39-06N 121-34W 21M
Sep 24, 2021 - 01:53 AM EDT / 2021.09.24 0553 UTC
Wind: from the E (090 degrees) at 5 MPH (4 KT):0
Visibility: 10 mile(s):0
Sky conditions: clear
Temperature: 71.1 F (21.7 C)
Dew Point: 45.0 F (7.2 C)
Relative Humidity: 39%
Pressure (altimeter): 29.81 in. Hg (1009 hPa)
Pressure tendency: 0.01 inches (0.3 hPa) higher than three hours ago
ob: KMYV 240553Z AUTO 09004KT 10SM CLR 22/07 A2981 RMK AO2 SLP098 T02170072 10361 20200 50003
cycle: 6

Station Type Date Time Source
KMYV TAF UTC NOAA

Error!

Example: see airport list